Time;durP1;ratioP1;P1;durP2;ratioP2;P2;SDS_P1;SDS_P2;PMS_P1;PMS_P2;Temp;Humidity;BMP_temperature;BMP_pressure;BME280_temperature;BME280_humidity;BME280_pressure;Samples;Min_cycle;Max_cycle;Signal;HPM_P1;HPM_P2
2022/11/03 00:02:06;;;;;;;10.93;1.70;;;10.20;99.90;;;;;;5020196;28;20053;-66
2022/11/03 00:04:34;;;;;;;11.13;1.70;;;10.20;99.90;;;;;;5022415;28;20038;-68
2022/11/03 00:07:02;;;;;;;17.08;1.95;;;10.20;99.90;;;;;;5018855;28;20050;-60
2022/11/03 00:09:30;;;;;;;17.95;1.85;;;10.20;99.90;;;;;;5007355;28;20390;-64
2022/11/03 00:11:58;;;;;;;18.90;3.25;;;10.10;99.90;;;;;;5009947;28;20054;-61
2022/11/03 00:14:26;;;;;;;18.77;3.00;;;10.10;99.90;;;;;;5009775;28;20052;-66
2022/11/03 00:16:54;;;;;;;16.95;2.25;;;10.10;99.90;;;;;;5021639;28;20057;-67
2022/11/03 00:19:22;;;;;;;17.05;2.08;;;10.10;99.90;;;;;;5012365;28;20050;-61
2022/11/03 00:21:50;;;;;;;14.27;2.33;;;10.10;99.90;;;;;;5023016;28;20526;-63
2022/11/03 00:24:17;;;;;;;12.00;2.42;;;10.00;99.90;;;;;;5015950;28;20053;-62
2022/11/03 00:26:47;;;;;;;15.07;2.45;;;10.00;99.90;;;;;;5005383;28;20073;-60
2022/11/03 00:29:15;;;;;;;18.33;2.38;;;10.00;99.90;;;;;;5014478;28;20669;-67
2022/11/03 00:31:44;;;;;;;17.30;3.45;;;10.00;99.90;;;;;;5025566;28;20046;-60
2022/11/03 00:34:11;;;;;;;19.45;1.85;;;10.00;99.90;;;;;;5013742;28;20477;-68
2022/11/03 00:36:41;;;;;;;14.82;1.75;;;10.00;99.90;;;;;;5021259;28;20046;-69
2022/11/03 00:39:10;;;;;;;22.42;2.13;;;10.00;99.90;;;;;;5018973;28;20049;-63
2022/11/03 00:41:38;;;;;;;16.50;3.63;;;10.00;99.90;;;;;;5016806;28;20053;-66
2022/11/03 00:44:07;;;;;;;13.73;1.60;;;10.00;99.90;;;;;;5018134;28;20041;-68
2022/11/03 00:46:35;;;;;;;13.00;1.88;;;10.00;99.90;;;;;;5008055;28;20417;-59
2022/11/03 00:49:04;;;;;;;13.70;1.63;;;10.00;99.90;;;;;;5024015;28;20048;-67
2022/11/03 00:51:33;;;;;;;13.93;2.00;;;10.00;99.90;;;;;;5024011;28;20045;-64
2022/11/03 00:54:03;;;;;;;16.38;2.47;;;10.00;99.90;;;;;;5017911;28;20042;-64
2022/11/03 00:56:36;;;;;;;14.40;1.58;;;10.00;99.90;;;;;;5005353;28;20058;-71
2022/11/03 00:59:06;;;;;;;12.35;1.45;;;10.00;99.90;;;;;;5012347;28;20049;-66
2022/11/03 01:01:43;;;;;;;;;;;10.00;99.90;;;;;;5005750;28;20056;-59
2022/11/03 01:07:04;;;;;;;18.45;1.52;;;9.90;99.90;;;;;;5016635;28;20302;-66
2022/11/03 01:09:32;;;;;;;17.17;1.90;;;9.90;99.90;;;;;;5017755;28;20169;-59
2022/11/03 01:12:15;;;;;;;12.82;1.40;;;9.90;99.90;;;;;;5008538;28;20046;-58
2022/11/03 01:14:48;;;;;;;19.15;2.60;;;9.80;99.90;;;;;;5011536;28;20371;-59
2022/11/03 01:17:17;;;;;;;12.40;2.03;;;9.80;99.90;;;;;;5016729;28;20053;-59
2022/11/03 01:19:45;;;;;;;12.57;2.30;;;9.80;99.90;;;;;;5026625;28;20048;-65
2022/11/03 01:22:14;;;;;;;14.32;2.20;;;9.70;99.90;;;;;;5027400;28;20056;-58
2022/11/03 01:24:43;;;;;;;22.27;3.63;;;9.70;99.90;;;;;;5022965;28;20054;-60
2022/11/03 01:27:13;;;;;;;14.95;2.63;;;9.70;99.90;;;;;;5010707;28;20046;-59
2022/11/03 01:29:42;;;;;;;19.05;3.58;;;9.70;99.90;;;;;;5021596;28;20041;-66
2022/11/03 01:32:10;;;;;;;14.48;2.60;;;9.70;99.90;;;;;;5027073;28;20056;-63
2022/11/03 01:34:38;;;;;;;14.18;1.73;;;9.70;99.90;;;;;;5019299;28;20045;-63
2022/11/03 01:37:06;;;;;;;10.82;1.48;;;9.60;99.90;;;;;;5020599;28;20041;-77
2022/11/03 01:39:34;;;;;;;13.02;2.25;;;9.60;99.90;;;;;;5012129;28;20050;-79
2022/11/03 01:42:01;;;;;;;13.65;1.30;;;9.60;99.90;;;;;;5008807;28;20046;-77
2022/11/03 01:44:35;;;;;;;11.80;2.28;;;9.60;99.90;;;;;;5017515;28;20050;-72
2022/11/03 01:47:23;;;;;;;13.55;1.73;;;9.60;99.90;;;;;;5024087;28;20058;-62
2022/11/03 01:50:04;;;;;;;17.45;2.38;;;9.60;99.90;;;;;;5018154;28;20056;-60
2022/11/03 01:52:42;;;;;;;17.80;2.10;;;9.60;99.90;;;;;;5010442;28;20045;-60
2022/11/03 01:55:15;;;;;;;12.50;1.60;;;9.60;99.90;;;;;;5012343;28;20503;-59
2022/11/03 01:57:52;;;;;;;13.45;1.83;;;9.60;99.90;;;;;;5008287;28;20046;-61
2022/11/03 02:00:20;;;;;;;16.50;2.85;;;9.60;99.90;;;;;;5020851;28;20505;-59
2022/11/03 02:02:49;;;;;;;11.77;1.75;;;9.60;99.90;;;;;;5007372;28;20072;-59
2022/11/03 02:05:18;;;;;;;16.13;1.87;;;9.50;99.90;;;;;;5009608;28;20050;-59
2022/11/03 02:07:55;;;;;;;13.68;1.65;;;9.50;99.90;;;;;;5023751;28;20423;-59
2022/11/03 02:10:24;;;;;;;10.88;2.05;;;9.50;99.90;;;;;;5009241;28;20054;-63
2022/11/03 02:12:56;;;;;;;18.25;2.63;;;9.50;99.90;;;;;;5008301;28;20049;-60
2022/11/03 02:15:24;;;;;;;17.40;2.75;;;9.50;99.90;;;;;;5023712;28;20046;-59
2022/11/03 02:17:54;;;;;;;12.90;2.17;;;9.50;99.90;;;;;;5016879;28;20053;-59
2022/11/03 02:20:26;;;;;;;15.13;1.70;;;9.50;99.90;;;;;;5013686;28;20524;-59
2022/11/03 02:23:08;;;;;;;11.35;1.38;;;9.50;99.90;;;;;;5028248;28;20133;-69
2022/11/03 02:25:49;;;;;;;16.65;1.50;;;9.50;99.90;;;;;;5026789;28;20046;-72
2022/11/03 02:28:24;;;;;;;14.95;1.80;;;9.50;99.90;;;;;;5012273;28;20401;-76
2022/11/03 02:30:55;;;;;;;13.35;2.05;;;9.50;99.90;;;;;;5024125;28;20054;-72
2022/11/03 02:33:36;;;;;;;14.90;2.08;;;9.40;99.90;;;;;;5027114;28;20485;-75
2022/11/03 02:36:21;;;;;;;15.73;1.80;;;9.50;99.90;;;;;;5016788;28;20045;-75
2022/11/03 02:39:01;;;;;;;13.30;2.10;;;9.40;99.90;;;;;;5033876;28;20079;-75
2022/11/03 02:41:32;;;;;;;14.23;2.78;;;9.40;99.90;;;;;;5027477;28;20057;-76
2022/11/03 02:44:01;;;;;;;14.90;2.17;;;9.30;99.90;;;;;;5020962;28;20069;-77
2022/11/03 02:46:31;;;;;;;15.27;1.88;;;9.30;99.90;;;;;;5018252;28;20524;-72
2022/11/03 02:48:58;;;;;;;20.05;2.90;;;9.30;99.90;;;;;;5028207;28;20050;-71
2022/11/03 02:51:26;;;;;;;19.63;2.47;;;9.30;99.90;;;;;;5031225;28;20048;-72
2022/11/03 02:54:05;;;;;;;11.15;2.42;;;9.20;99.90;;;;;;5023559;28;20061;-64
2022/11/03 02:56:39;;;;;;;18.45;2.33;;;9.20;99.90;;;;;;5014339;28;20042;-63
2022/11/03 02:59:13;;;;;;;17.48;1.88;;;9.20;99.90;;;;;;5014399;28;20041;-66
2022/11/03 03:01:49;;;;;;;12.38;1.48;;;9.20;99.90;;;;;;5014789;28;20421;-70
2022/11/03 03:04:27;;;;;;;11.77;1.98;;;9.10;99.90;;;;;;5014683;28;20042;-70
2022/11/03 03:07:03;;;;;;;25.50;2.45;;;9.10;99.90;;;;;;5014756;28;20398;-72
2022/11/03 03:09:38;;;;;;;15.95;1.55;;;9.10;99.90;;;;;;5014837;28;20060;-68
2022/11/03 03:12:09;;;;;;;15.90;3.47;;;9.10;99.90;;;;;;5014550;28;20056;-74
2022/11/03 03:14:40;;;;;;;13.18;2.03;;;9.10;99.90;;;;;;5014350;28;20046;-69
2022/11/03 03:17:17;;;;;;;13.23;1.83;;;9.00;99.90;;;;;;5016370;28;20396;-64
2022/11/03 03:20:02;;;;;;;15.48;2.78;;;9.00;99.90;;;;;;5034295;28;20397;-68
2022/11/03 03:22:42;;;;;;;20.63;2.55;;;9.00;99.90;;;;;;5034143;28;20052;-62
2022/11/03 03:25:29;;;;;;;12.93;2.10;;;9.00;99.90;;;;;;5024295;28;20042;-59
2022/11/03 03:28:25;;;;;;;13.90;1.88;;;8.90;99.90;;;;;;5013985;28;20053;-72
2022/11/03 03:30:56;;;;;;;15.13;2.40;;;8.90;99.90;;;;;;5018744;28;20046;-68
2022/11/03 03:33:25;;;;;;;21.25;2.35;;;8.90;99.90;;;;;;5023214;28;20046;-66
2022/11/03 03:36:00;;;;;;;15.70;2.35;;;8.80;99.90;;;;;;5018562;28;20053;-61
2022/11/03 03:38:31;;;;;;;;;;;8.80;99.90;;;;;;5020162;28;20394;-59
2022/11/03 03:41:01;;;;;;;17.77;1.52;;;8.80;99.90;;;;;;5012493;28;19922;-64
2022/11/03 03:43:33;;;;;;;17.17;3.17;;;8.80;99.90;;;;;;5023876;28;20049;-59
2022/11/03 03:46:10;;;;;;;14.30;2.35;;;8.80;99.90;;;;;;5030057;28;20076;-58
2022/11/03 03:48:38;;;;;;;15.45;1.88;;;8.80;99.90;;;;;;5026992;28;20052;-59
2022/11/03 03:51:06;;;;;;;15.82;2.40;;;8.80;99.90;;;;;;5033763;28;20041;-59
2022/11/03 03:53:34;;;;;;;14.52;1.67;;;8.80;99.90;;;;;;5032187;28;20421;-60
2022/11/03 03:56:04;;;;;;;24.27;4.40;;;8.80;99.90;;;;;;5025480;28;20045;-59
2022/11/03 03:58:32;;;;;;;19.00;3.28;;;8.80;99.90;;;;;;5013252;28;20058;-59
2022/11/03 04:00:59;;;;;;;12.57;1.88;;;8.70;99.90;;;;;;5022475;28;20048;-60
2022/11/03 04:03:28;;;;;;;17.10;2.72;;;8.70;99.90;;;;;;5017594;28;20041;-60
2022/11/03 04:05:55;;;;;;;24.50;3.60;;;8.70;99.90;;;;;;5032519;28;20046;-64
2022/11/03 04:08:23;;;;;;;17.38;2.70;;;8.70;99.90;;;;;;5013257;28;20070;-61
2022/11/03 04:22:16;;;;;;;26.05;2.97;;;8.60;99.90;;;;;;5015009;28;20635;-76
2022/11/03 04:24:45;;;;;;;19.95;2.50;;;8.60;99.90;;;;;;5029857;28;20046;-67
2022/11/03 04:27:35;;;;;;;14.15;3.70;;;8.70;99.90;;;;;;5014053;28;20049;-78
2022/11/03 04:30:09;;;;;;;18.13;2.35;;;8.70;99.90;;;;;;5012641;28;20050;-59
2022/11/03 04:32:36;;;;;;;12.23;2.00;;;8.70;99.90;;;;;;5013132;28;20069;-69
2022/11/03 04:35:17;;;;;;;18.88;2.47;;;8.70;99.90;;;;;;5012923;28;20429;-64
2022/11/03 04:37:50;;;;;;;21.90;3.97;;;8.70;99.90;;;;;;5012932;28;20053;-63
2022/11/03 04:40:17;;;;;;;17.88;1.85;;;8.70;99.90;;;;;;5013139;28;20046;-67
2022/11/03 04:42:46;;;;;;;20.48;2.60;;;8.70;99.90;;;;;;5012963;28;20046;-67
2022/11/03 04:45:30;;;;;;;19.85;3.00;;;8.80;99.90;;;;;;5012754;28;20498;-70
2022/11/03 04:48:00;;;;;;;22.52;4.18;;;8.80;99.90;;;;;;5021236;28;20068;-72
2022/11/03 04:50:28;;;;;;;16.33;3.60;;;8.80;99.90;;;;;;5031522;28;20068;-66
2022/11/03 04:52:58;;;;;;;20.10;2.70;;;8.80;99.90;;;;;;5032701;28;20042;-63
2022/11/03 04:55:26;;;;;;;17.83;2.63;;;8.80;99.90;;;;;;5032516;28;20057;-69
2022/11/03 04:57:59;;;;;;;22.80;2.55;;;8.80;99.90;;;;;;5032550;28;20045;-68
2022/11/03 05:00:26;;;;;;;16.58;2.63;;;8.80;99.90;;;;;;5032742;28;20401;-61
2022/11/03 05:02:54;;;;;;;23.90;2.38;;;8.80;99.90;;;;;;5032264;28;20053;-65
2022/11/03 05:05:25;;;;;;;16.85;3.33;;;8.90;99.90;;;;;;5032184;28;20041;-60
2022/11/03 05:07:55;;;;;;;20.63;2.90;;;8.90;99.90;;;;;;5032092;28;20053;-62
2022/11/03 05:10:28;;;;;;;;;;;8.90;99.90;;;;;;5032826;28;20042;-61
2022/11/03 05:12:56;;;;;;;24.58;3.72;;;8.90;99.90;;;;;;5032210;28;20273;-61
2022/11/03 05:15:36;;;;;;;16.08;2.03;;;8.90;99.90;;;;;;5032014;28;20049;-60
2022/11/03 05:18:26;;;;;;;29.63;2.55;;;8.90;99.90;;;;;;5030770;28;20046;-60
2022/11/03 05:21:01;;;;;;;15.50;2.27;;;8.80;99.90;;;;;;5030942;28;20060;-62
2022/11/03 05:23:35;;;;;;;20.08;2.20;;;8.90;99.90;;;;;;5032247;28;20049;-60
2022/11/03 05:26:05;;;;;;;28.90;3.53;;;8.90;99.90;;;;;;5030980;28;20370;-59
2022/11/03 05:28:38;;;;;;;18.95;2.42;;;8.90;99.90;;;;;;5031897;28;20493;-68
2022/11/03 05:31:23;;;;;;;16.23;2.47;;;8.90;99.90;;;;;;5028279;28;20389;-63
2022/11/03 05:33:52;;;;;;;19.58;3.17;;;8.90;99.90;;;;;;5031933;28;20048;-66
2022/11/03 05:36:23;;;;;;;22.95;2.05;;;8.90;99.90;;;;;;5029825;28;20060;-68
2022/11/03 05:38:57;;;;;;;34.88;4.20;;;8.90;99.90;;;;;;5031676;28;20216;-68
2022/11/03 05:41:29;;;;;;;34.83;5.10;;;8.90;99.90;;;;;;5031744;28;20037;-63
2022/11/03 05:43:58;;;;;;;22.77;3.22;;;8.90;99.90;;;;;;5031689;28;20050;-61
2022/11/03 05:46:29;;;;;;;22.92;4.30;;;8.90;99.90;;;;;;5031511;28;20048;-67
2022/11/03 05:49:00;;;;;;;21.33;2.38;;;8.90;99.90;;;;;;5009366;28;20061;-61
2022/11/03 05:51:36;;;;;;;14.45;2.30;;;8.90;99.90;;;;;;5008148;28;20049;-61
2022/11/03 05:54:11;;;;;;;27.02;2.95;;;8.90;99.90;;;;;;5008508;28;20089;-63
2022/11/03 05:56:46;;;;;;;16.08;2.13;;;8.90;99.90;;;;;;5008572;28;20045;-66
2022/11/03 05:59:18;;;;;;;23.33;2.85;;;8.90;99.90;;;;;;5026879;28;20481;-63
2022/11/03 06:01:46;;;;;;;27.77;3.13;;;8.90;99.90;;;;;;5025819;28;20060;-70
2022/11/03 06:04:23;;;;;;;27.58;2.83;;;8.80;99.90;;;;;;5003970;28;20045;-61
2022/11/03 06:06:59;;;;;;;25.77;2.75;;;8.80;99.90;;;;;;5005138;28;20061;-60
2022/11/03 06:09:30;;;;;;;16.95;3.00;;;8.80;99.90;;;;;;5005332;28;20376;-60
2022/11/03 06:12:00;;;;;;;23.88;3.20;;;8.80;99.90;;;;;;5005632;28;20042;-60
2022/11/03 06:14:30;;;;;;;17.50;2.47;;;8.80;99.90;;;;;;5026788;28;20049;-60
2022/11/03 06:17:10;;;;;;;17.25;2.42;;;8.80;99.90;;;;;;5027726;28;20045;-61
2022/11/03 06:19:43;;;;;;;21.02;3.20;;;8.80;99.90;;;;;;5026825;28;20053;-61
2022/11/03 06:22:23;;;;;;;21.38;3.45;;;8.80;99.90;;;;;;5025226;28;20058;-69
2022/11/03 06:24:58;;;;;;;44.72;4.05;;;9.30;99.90;;;;;;5023271;28;20056;-64
2022/11/03 06:27:29;;;;;;;26.50;3.10;;;8.80;99.90;;;;;;5026979;28;20081;-66
2022/11/03 06:30:20;;;;;;;21.40;2.97;;;8.80;99.90;;;;;;5027705;28;20045;-63
2022/11/03 06:32:47;;;;;;;13.82;2.47;;;8.70;99.90;;;;;;5027601;28;20045;-61
2022/11/03 06:35:16;;;;;;;22.30;2.47;;;8.80;99.90;;;;;;5027379;28;20057;-60
2022/11/03 06:37:44;;;;;;;26.08;2.75;;;8.70;99.90;;;;;;5024266;28;20056;-61
2022/11/03 06:40:14;;;;;;;31.77;2.88;;;8.70;99.90;;;;;;5024872;28;20041;-61
2022/11/03 06:42:42;;;;;;;24.00;2.60;;;;;;;;;;5026837;28;20057;-61
2022/11/03 06:45:24;;;;;;;22.23;3.33;;;8.70;99.90;;;;;;5026402;28;20512;-61
2022/11/03 06:47:53;;;;;;;21.58;2.30;;;8.70;99.90;;;;;;5012022;28;20049;-62
2022/11/03 06:50:40;;;;;;;20.90;3.20;;;8.70;99.90;;;;;;5023011;28;20045;-63
2022/11/03 06:53:17;;;;;;;15.90;2.70;;;8.60;99.90;;;;;;5023566;28;20493;-61
2022/11/03 06:55:46;;;;;;;21.13;2.35;;;8.70;99.90;;;;;;5025010;28;20046;-63
2022/11/03 06:58:26;;;;;;;24.40;3.70;;;8.60;99.90;;;;;;5027698;28;20053;-66
2022/11/03 07:00:58;;;;;;;23.52;3.15;;;8.60;99.90;;;;;;5029721;28;20430;-66
2022/11/03 07:03:36;;;;;;;25.55;2.70;;;8.60;99.90;;;;;;5027186;28;20049;-65
2022/11/03 07:06:10;;;;;;;29.65;2.97;;;8.60;99.90;;;;;;5028295;28;20053;-77
2022/11/03 07:08:47;;;;;;;28.08;2.70;;;8.60;99.90;;;;;;5010249;28;20668;-75
2022/11/03 07:11:20;;;;;;;24.85;2.80;;;8.60;99.90;;;;;;5011448;28;20045;-72
2022/11/03 07:13:51;;;;;;;27.17;3.47;;;8.60;99.90;;;;;;5023124;28;20045;-64
2022/11/03 07:16:31;;;;;;;26.52;3.45;;;8.60;99.90;;;;;;5026029;28;20046;-63
2022/11/03 07:19:02;;;;;;;22.42;2.25;;;8.60;99.90;;;;;;5027129;28;20057;-60
2022/11/03 07:21:39;;;;;;;31.48;2.92;;;8.60;99.90;;;;;;5030983;28;20485;-60
2022/11/03 07:24:16;;;;;;;21.83;2.47;;;8.60;99.90;;;;;;5025291;28;20052;-63
2022/11/03 07:26:45;;;;;;;24.58;3.08;;;;;;;;;;5029891;28;20052;-73
2022/11/03 07:29:20;;;;;;;28.95;3.72;;;8.60;99.90;;;;;;5029593;28;20045;-69
2022/11/03 07:31:53;;;;;;;16.05;2.92;;;8.60;99.90;;;;;;5025563;28;20034;-74
2022/11/03 07:34:24;;;;;;;28.48;4.90;;;8.60;99.90;;;;;;5029883;28;20049;-60
2022/11/03 07:36:55;;;;;;;24.63;3.35;;;8.60;99.90;;;;;;5005448;28;20057;-63
2022/11/03 07:39:23;;;;;;;26.52;3.17;;;8.60;99.90;;;;;;5030267;28;20053;-63
2022/11/03 07:41:53;;;;;;;20.63;2.38;;;8.60;99.90;;;;;;5030825;28;20048;-61
2022/11/03 07:44:21;;;;;;;23.13;3.78;;;8.70;99.90;;;;;;5029761;28;20820;-60
2022/11/03 07:46:49;;;;;;;30.30;3.22;;;8.60;99.90;;;;;;5024814;28;20053;-60
2022/11/03 07:49:27;;;;;;;19.05;2.67;;;8.60;99.90;;;;;;5026122;28;20045;-63
2022/11/03 07:51:57;;;;;;;24.30;3.22;;;8.60;99.90;;;;;;5029186;28;20491;-63
2022/11/03 07:54:33;;;;;;;20.10;3.28;;;8.60;99.90;;;;;;5030269;28;20437;-75
2022/11/03 07:57:17;;;;;;;30.10;4.40;;;8.70;99.90;;;;;;5027537;28;20049;-69
2022/11/03 07:59:47;;;;;;;19.63;2.67;;;8.70;99.90;;;;;;5025248;28;20397;-74
2022/11/03 08:02:40;;;;;;;28.70;4.90;;;8.70;99.90;;;;;;5016182;28;20054;-75
2022/11/03 08:05:08;;;;;;;14.20;2.15;;;8.80;99.90;;;;;;5006468;28;20502;-75
2022/11/03 08:07:35;;;;;;;24.40;2.75;;;8.70;99.90;;;;;;5013313;28;20056;-63
2022/11/03 08:10:05;;;;;;;16.20;2.40;;;8.70;99.90;;;;;;5026870;28;20068;-59
2022/11/03 08:12:33;;;;;;;20.08;3.25;;;8.80;99.90;;;;;;5013092;28;20083;-61
2022/11/03 08:15:01;;;;;;;22.80;2.90;;;8.80;99.90;;;;;;5010073;28;20056;-59
2022/11/03 08:17:29;;;;;;;18.52;3.70;;;8.80;99.90;;;;;;5014627;28;20045;-59
2022/11/03 08:19:57;;;;;;;30.77;3.80;;;8.80;99.90;;;;;;5019857;28;20050;-66
2022/11/03 08:22:24;;;;;;;25.90;3.65;;;8.80;99.90;;;;;;5012882;28;20477;-62
2022/11/03 08:24:52;;;;;;;25.85;2.80;;;8.80;99.90;;;;;;5023844;28;20054;-63
2022/11/03 08:27:20;;;;;;;23.50;3.65;;;8.80;99.90;;;;;;5011522;28;20034;-61
2022/11/03 08:29:47;;;;;;;27.50;3.70;;;8.80;99.90;;;;;;5029760;28;20068;-71
2022/11/03 08:32:15;;;;;;;31.45;3.30;;;8.60;99.90;;;;;;5029572;28;20041;-70
2022/11/03 08:34:43;;;;;;;23.35;3.10;;;8.80;99.90;;;;;;5029435;28;20042;-60
2022/11/03 08:37:10;;;;;;;22.50;3.97;;;8.80;99.90;;;;;;5025606;28;20057;-60
2022/11/03 08:39:38;;;;;;;31.85;2.90;;;8.80;99.90;;;;;;5024579;28;20049;-60
2022/11/03 08:42:06;;;;;;;28.73;3.40;;;8.80;99.90;;;;;;5026589;28;20045;-61
2022/11/03 08:44:33;;;;;;;17.98;3.78;;;8.80;99.90;;;;;;5028032;28;20049;-60
2022/11/03 08:47:01;;;;;;;19.35;3.47;;;8.80;99.90;;;;;;5019422;28;20050;-60
2022/11/03 08:49:29;;;;;;;19.90;2.72;;;8.80;99.90;;;;;;5021399;28;20264;-59
2022/11/03 08:51:56;;;;;;;23.92;3.55;;;8.60;99.90;;;;;;5027408;28;20037;-60
2022/11/03 08:54:25;;;;;;;23.48;3.50;;;8.80;99.90;;;;;;5027546;28;20425;-64
2022/11/03 08:56:54;;;;;;;26.85;4.40;;;8.80;99.90;;;;;;5014922;28;20057;-59
2022/11/03 08:59:22;;;;;;;29.17;3.25;;;8.80;99.90;;;;;;5025530;28;20500;-60
2022/11/03 09:01:50;;;;;;;15.68;3.40;;;8.70;99.90;;;;;;5014105;28;20053;-60
2022/11/03 09:04:17;;;;;;;22.55;3.08;;;8.80;99.90;;;;;;5016598;28;20041;-60
2022/11/03 09:06:45;;;;;;;28.02;3.85;;;8.70;99.90;;;;;;5008695;28;20041;-59
2022/11/03 09:09:13;;;;;;;24.90;3.78;;;8.70;99.90;;;;;;5011553;28;20042;-59
2022/11/03 09:12:01;;;;;;;26.65;3.88;;;8.70;99.90;;;;;;5014550;28;20049;-60
2022/11/03 09:14:28;;;;;;;28.38;3.13;;;8.70;99.90;;;;;;5022578;28;20049;-59
2022/11/03 09:16:56;;;;;;;26.15;3.53;;;8.60;99.90;;;;;;5026318;28;20049;-60
2022/11/03 09:19:23;;;;;;;20.52;4.38;;;8.70;99.90;;;;;;5027668;28;20045;-60
2022/11/03 09:21:51;;;;;;;24.90;2.92;;;8.70;99.90;;;;;;5026796;28;20041;-60
2022/11/03 09:24:19;;;;;;;25.75;3.85;;;8.70;99.90;;;;;;5013162;28;20055;-63
2022/11/03 09:26:46;;;;;;;27.20;3.63;;;8.70;99.90;;;;;;5011988;28;20054;-60
2022/11/03 09:29:14;;;;;;;27.77;4.47;;;8.70;99.90;;;;;;5018599;28;20049;-66
2022/11/03 09:31:42;;;;;;;26.17;4.88;;;8.80;99.90;;;;;;5008976;28;20080;-73
2022/11/03 09:34:09;;;;;;;31.02;5.70;;;8.80;99.90;;;;;;5017738;28;20057;-73
2022/11/03 09:36:37;;;;;;;27.50;4.88;;;8.90;99.90;;;;;;5011253;28;20056;-72
2022/11/03 09:39:05;;;;;;;29.90;5.32;;;9.10;99.90;;;;;;5013954;28;20045;-72
2022/11/03 09:41:33;;;;;;;28.98;5.30;;;9.30;99.90;;;;;;5018159;28;20398;-75
2022/11/03 09:44:21;;;;;;;24.67;4.63;;;9.50;99.90;;;;;;5020146;28;20072;-60
2022/11/03 09:46:50;;;;;;;17.10;3.15;;;9.50;99.90;;;;;;5022978;28;20061;-75
2022/11/03 09:49:25;;;;;;;20.83;3.97;;;9.60;99.90;;;;;;5007393;28;20612;-76
2022/11/03 09:51:54;;;;;;;29.85;4.95;;;9.90;99.90;;;;;;5006440;28;20417;-78
2022/11/03 09:54:22;;;;;;;18.10;2.33;;;10.00;99.90;;;;;;5026608;28;20042;-77
2022/11/03 09:56:50;;;;;;;21.23;2.65;;;10.00;99.90;;;;;;5015988;28;20049;-60
2022/11/03 09:59:20;;;;;;;26.65;2.88;;;10.10;99.90;;;;;;5012722;28;20071;-61
2022/11/03 10:01:52;;;;;;;14.98;3.15;;;10.10;99.90;;;;;;5023197;28;20056;-60
2022/11/03 10:04:26;;;;;;;26.05;3.35;;;10.10;99.90;;;;;;5021173;28;20048;-60
2022/11/03 10:06:56;;;;;;;16.65;2.35;;;10.00;99.90;;;;;;5007410;28;20526;-61
2022/11/03 10:09:25;;;;;;;32.13;4.80;;;10.00;99.90;;;;;;5012441;28;20037;-60
2022/11/03 10:11:54;;;;;;;18.97;2.83;;;10.00;99.90;;;;;;5025943;28;20053;-59
2022/11/03 10:14:22;;;;;;;21.98;2.75;;;10.00;99.90;;;;;;5018958;28;20048;-60
2022/11/03 10:16:55;;;;;;;24.17;3.33;;;10.10;99.90;;;;;;5004839;28;20046;-60
2022/11/03 10:19:23;;;;;;;24.50;2.47;;;10.10;99.90;;;;;;5025882;28;20042;-60
2022/11/03 10:21:52;;;;;;;23.50;3.08;;;10.20;99.90;;;;;;5012205;28;20042;-60
2022/11/03 10:24:21;;;;;;;25.90;3.65;;;;;;;;;;5016943;28;20038;-60
2022/11/03 10:26:51;;;;;;;17.35;2.78;;;10.30;99.90;;;;;;5014659;28;20050;-60
2022/11/03 10:29:24;;;;;;;13.57;2.22;;;10.40;99.90;;;;;;5017540;28;20049;-63
2022/11/03 10:31:56;;;;;;;17.42;2.38;;;10.50;99.90;;;;;;5024314;28;20500;-74
2022/11/03 10:34:24;;;;;;;21.13;2.40;;;10.50;99.90;;;;;;5015640;28;20042;-60
2022/11/03 10:37:16;;;;;;;21.67;2.08;;;10.60;99.90;;;;;;5019337;28;20512;-60
2022/11/03 10:39:48;;;;;;;20.55;2.85;;;10.60;99.90;;;;;;5019031;28;20069;-61
2022/11/03 10:42:24;;;;;;;22.02;2.80;;;10.70;99.90;;;;;;5015069;28;20061;-60
2022/11/03 10:45:19;;;;;;;22.35;3.80;;;10.70;99.90;;;;;;5015047;28;20038;-66
2022/11/03 10:48:01;;;;;;;8.38;1.75;;;10.80;99.90;;;;;;5018059;28;20485;-60
2022/11/03 10:50:29;;;;;;;16.73;1.85;;;10.80;99.90;;;;;;5031713;28;20057;-63
2022/11/03 10:52:56;;;;;;;20.77;2.75;;;10.90;99.90;;;;;;5030121;28;20381;-60
2022/11/03 10:55:25;;;;;;;13.10;1.88;;;11.00;99.90;;;;;;5029765;28;20401;-64
2022/11/03 10:57:56;;;;;;;13.32;2.67;;;11.10;99.90;;;;;;5018047;28;20058;-61
2022/11/03 11:00:24;;;;;;;14.85;2.45;;;11.20;99.90;;;;;;5031399;28;20413;-60
2022/11/03 11:02:58;;;;;;;14.05;1.80;;;11.40;99.90;;;;;;5030651;28;20045;-59
2022/11/03 11:05:25;;;;;;;9.20;1.17;;;11.50;99.90;;;;;;5024346;28;20046;-65
2022/11/03 11:07:54;;;;;;;12.55;1.75;;;11.70;99.90;;;;;;5018495;28;20052;-62
2022/11/03 11:10:30;;;;;;;17.48;2.13;;;11.90;99.90;;;;;;5031425;28;20037;-60
2022/11/03 11:13:21;;;;;;;9.43;1.95;;;12.20;99.90;;;;;;5031015;28;20046;-60
2022/11/03 11:16:00;;;;;;;10.15;1.60;;;12.20;99.90;;;;;;5031295;28;20042;-60
2022/11/03 11:18:28;;;;;;;8.00;1.92;;;12.30;99.90;;;;;;5029724;28;20060;-62
2022/11/03 11:21:14;;;;;;;8.70;1.27;;;12.50;99.90;;;;;;5013359;28;20176;-60
2022/11/03 11:23:43;;;;;;;18.13;2.28;;;12.70;99.90;;;;;;5023087;28;20440;-60
2022/11/03 11:26:23;;;;;;;11.45;1.20;;;13.00;99.90;;;;;;5030747;28;20057;-62
2022/11/03 11:29:08;;;;;;;12.60;1.40;;;13.20;99.90;;;;;;5031077;28;20041;-60
2022/11/03 11:31:40;;;;;;;8.93;1.60;;;13.50;99.90;;;;;;5031017;28;20057;-60
2022/11/03 11:34:08;;;;;;;9.65;1.63;;;13.80;99.90;;;;;;5028858;28;20050;-59
2022/11/03 11:36:37;;;;;;;13.45;1.05;;;14.00;99.90;;;;;;5011286;28;20481;-60
2022/11/03 11:39:33;;;;;;;5.07;1.10;;;14.10;99.90;;;;;;5025424;28;20049;-59
2022/11/03 11:42:16;;;;;;;10.43;1.13;;;14.30;99.90;;;;;;5010336;28;20065;-62
2022/11/03 11:45:00;;;;;;;8.23;1.13;;;14.60;99.90;;;;;;5025660;28;20069;-61
2022/11/03 11:47:47;;;;;;;12.13;1.95;;;14.70;99.90;;;;;;5029825;28;20050;-60
2022/11/03 11:50:15;;;;;;;7.75;1.35;;;15.00;99.90;;;;;;5020910;28;20050;-59
2022/11/03 11:53:01;;;;;;;17.77;3.13;;;15.00;99.90;;;;;;5013477;28;20045;-60
2022/11/03 11:55:31;;;;;;;12.50;1.83;;;15.20;99.90;;;;;;5010689;28;20498;-65
2022/11/03 11:58:00;;;;;;;11.32;2.08;;;15.40;99.90;;;;;;5017658;28;20050;-62
2022/11/03 12:00:31;;;;;;;10.13;1.45;;;15.60;99.90;;;;;;5030362;28;20060;-70
2022/11/03 12:03:01;;;;;;;11.82;1.80;;;15.90;99.90;;;;;;5029562;28;20056;-70
2022/11/03 12:05:34;;;;;;;16.85;2.20;;;16.20;99.90;;;;;;5016059;28;20049;-62
2022/11/03 12:08:16;;;;;;;10.15;1.83;;;16.40;99.90;;;;;;5015046;28;20057;-70
2022/11/03 12:10:55;;;;;;;12.20;2.00;;;16.50;99.90;;;;;;5030197;28;20045;-71
2022/11/03 12:13:43;;;;;;;18.67;1.60;;;16.50;99.90;;;;;;5029843;28;20358;-63
2022/11/03 12:16:32;;;;;;;13.50;1.90;;;16.20;99.90;;;;;;5029605;28;20045;-73
2022/11/03 12:19:34;;;;;;;12.02;2.78;;;16.00;99.90;;;;;;5029792;28;20045;-73
2022/11/03 12:22:07;;;;;;;18.83;2.35;;;16.20;99.90;;;;;;5010412;28;20054;-64
2022/11/03 12:24:38;;;;;;;16.33;1.85;;;16.40;99.90;;;;;;5029161;28;20041;-68
2022/11/03 12:27:24;;;;;;;14.27;1.85;;;16.70;99.90;;;;;;5029517;28;20045;-62
2022/11/03 12:29:53;;;;;;;12.30;1.80;;;16.70;99.90;;;;;;5029765;28;20390;-67
2022/11/03 12:32:21;;;;;;;16.15;1.50;;;16.80;99.90;;;;;;5028372;28;20076;-73
2022/11/03 12:35:07;;;;;;;12.50;1.92;;;16.80;99.90;;;;;;5023765;28;20049;-64
2022/11/03 12:37:35;;;;;;;10.38;2.03;;;16.90;99.90;;;;;;5013443;28;20045;-67
2022/11/03 12:40:04;;;;;;;15.70;1.92;;;17.00;99.90;;;;;;5029417;28;20046;-62
2022/11/03 12:42:34;;;;;;;13.68;1.80;;;17.20;99.90;;;;;;5029453;28;20053;-66
2022/11/03 12:45:02;;;;;;;14.80;2.20;;;17.50;99.90;;;;;;5029014;28;20485;-61
2022/11/03 12:47:30;;;;;;;13.45;2.15;;;17.70;99.90;;;;;;5028806;28;20072;-62
2022/11/03 12:49:57;;;;;;;16.02;2.83;;;17.50;99.90;;;;;;5026126;28;20045;-60
2022/11/03 12:52:25;;;;;;;13.50;1.95;;;17.30;99.90;;;;;;5009263;28;20049;-63
2022/11/03 12:54:54;;;;;;;11.43;1.48;;;17.30;99.90;;;;;;5024684;28;20084;-60
2022/11/03 12:57:22;;;;;;;17.52;1.95;;;17.40;99.90;;;;;;5028043;28;20079;-60
2022/11/03 12:59:51;;;;;;;14.68;1.60;;;17.20;99.80;;;;;;5028803;28;20485;-60
2022/11/03 13:02:19;;;;;;;18.52;2.13;;;16.70;99.90;;;;;;5028806;28;20057;-60
2022/11/03 13:04:46;;;;;;;11.85;1.75;;;16.20;99.90;;;;;;5028128;28;20042;-61
2022/11/03 13:07:14;;;;;;;13.23;2.00;;;15.90;99.90;;;;;;4976771;28;20046;-60
2022/11/03 13:09:48;;;;;;;16.83;1.92;;;15.00;99.90;;;;;;5027795;28;20042;-59
2022/11/03 13:12:31;;;;;;;8.98;1.52;;;15.00;99.90;;;;;;5028942;28;20065;-61
2022/11/03 13:15:00;;;;;;;10.95;2.70;;;14.50;99.90;;;;;;5026074;28;20485;-60
2022/11/03 13:17:28;;;;;;;15.75;2.35;;;14.10;99.90;;;;;;5028333;28;20060;-61
2022/11/03 13:20:15;;;;;;;16.42;2.08;;;13.70;99.90;;;;;;5025909;28;20046;-66
2022/11/03 13:22:42;;;;;;;10.80;1.40;;;13.50;99.90;;;;;;5012344;28;20057;-60
2022/11/03 13:25:10;;;;;;;14.00;1.90;;;13.40;99.90;;;;;;5028377;28;20056;-64
2022/11/03 13:27:38;;;;;;;13.95;1.92;;;13.50;99.90;;;;;;5027339;28;20045;-62